createdAt,value
2019-05-12T00:02:14.474Z,89.73
2019-05-12T00:05:04.360Z,90.21
2019-05-12T00:07:54.090Z,89.49
2019-05-12T00:10:43.857Z,90.02
2019-05-12T00:13:33.607Z,89.96
2019-05-12T00:16:23.384Z,90.15
2019-05-12T00:19:13.126Z,89.22
2019-05-12T00:22:02.905Z,89.19
2019-05-12T00:24:52.678Z,89.46
2019-05-12T00:27:42.501Z,89.25
2019-05-12T00:33:28.170Z,88.47
2019-05-12T00:36:11.414Z,88.64
2019-05-12T00:38:42.549Z,88.81
2019-05-12T00:41:32.266Z,88.67
2019-05-12T00:44:22.066Z,88.57
2019-05-12T00:46:52.492Z,88.60
2019-05-12T00:49:42.258Z,88.87
2019-05-12T00:52:32.010Z,88.95
2019-05-12T00:55:21.817Z,89.37
2019-05-12T00:58:11.553Z,89.41
2019-05-12T01:01:01.315Z,89.23
2019-05-12T01:03:51.047Z,89.30
2019-05-12T01:06:40.814Z,89.86
2019-05-12T01:09:30.533Z,89.87
2019-05-12T01:12:20.307Z,89.88
2019-05-12T01:18:30.493Z,89.83
2019-05-12T01:21:20.232Z,89.91
2019-05-12T01:24:10.037Z,89.93
2019-05-12T01:26:59.781Z,89.75
2019-05-12T01:29:49.586Z,89.84
2019-05-12T01:35:48.882Z,90.00
2019-05-12T01:38:38.654Z,90.12
2019-05-12T01:41:28.737Z,90.44
2019-05-12T01:44:11.736Z,90.35
2019-05-12T01:47:01.495Z,90.58
2019-05-12T01:49:51.228Z,90.97
2019-05-12T01:52:41.001Z,90.69
2019-05-12T01:55:30.757Z,90.30
2019-05-12T01:58:20.531Z,90.54
2019-05-12T02:00:50.915Z,91.13
2019-05-12T02:03:40.683Z,91.01
2019-05-12T02:06:30.454Z,90.53
2019-05-12T02:12:04.807Z,90.21
2019-05-12T02:14:54.571Z,90.16
2019-05-12T02:17:44.370Z,90.41
2019-05-12T02:20:34.145Z,90.44
2019-05-12T02:23:24.038Z,90.56
2019-05-12T02:26:13.816Z,90.43
2019-05-12T02:29:03.572Z,90.30
2019-05-12T02:31:35.594Z,90.36
2019-05-12T02:34:25.731Z,89.76
2019-05-12T02:37:05.255Z,89.49
2019-05-12T02:39:46.570Z,89.08
2019-05-12T02:42:36.349Z,88.69
2019-05-12T02:45:26.092Z,88.08
2019-05-12T02:48:15.858Z,88.50
2019-05-12T02:51:05.817Z,88.68
2019-05-12T02:53:43.125Z,88.51
2019-05-12T03:11:55.566Z,87.84
2019-05-12T03:14:45.456Z,87.83
2019-05-12T03:17:35.772Z,87.26
2019-05-12T03:20:26.767Z,87.06
2019-05-12T03:23:19.308Z,87.32
2019-05-12T03:25:59.416Z,87.20
2019-05-12T03:28:49.191Z,86.92
2019-05-12T03:31:41.022Z,87.14
2019-05-12T03:34:21.769Z,86.96
2019-05-12T03:37:17.183Z,87.12
2019-05-12T03:39:55.946Z,87.20
2019-05-12T03:42:45.700Z,86.67
2019-05-12T03:45:36.318Z,86.71
2019-05-12T03:48:19.010Z,86.57
2019-05-12T03:50:49.387Z,86.44
2019-05-12T03:53:39.136Z,85.94
2019-05-12T03:56:28.906Z,85.61
2019-05-12T03:59:18.684Z,85.12
2019-05-12T04:02:08.438Z,85.42
2019-05-12T04:04:58.168Z,85.63
2019-05-12T04:07:47.929Z,85.25
2019-05-12T04:10:37.675Z,85.05
2019-05-12T04:13:15.249Z,84.88
2019-05-12T04:15:57.338Z,84.43
2019-05-12T04:18:47.134Z,84.24
2019-05-12T04:21:36.907Z,83.31
2019-05-12T04:24:07.321Z,83.17
2019-05-12T04:26:57.058Z,83.18
2019-05-12T04:29:46.865Z,82.56
2019-05-12T04:32:36.623Z,82.54
2019-05-12T04:35:26.371Z,82.58
2019-05-12T04:37:56.729Z,82.85
2019-05-12T04:40:46.499Z,82.43
2019-05-12T04:43:16.943Z,82.27
2019-05-12T04:46:06.760Z,81.54
2019-05-12T04:48:56.489Z,81.76
2019-05-12T04:51:46.299Z,81.32
2019-05-12T04:54:36.069Z,80.52
2019-05-12T04:57:25.852Z,80.11
2019-05-12T05:03:19.075Z,78.53
2019-05-12T05:06:08.867Z,79.81
2019-05-12T05:08:44.016Z,79.17
2019-05-12T05:11:34.527Z,79.32
2019-05-12T05:14:09.931Z,78.73
2019-05-12T05:16:59.722Z,78.82
2019-05-12T05:19:50.354Z,78.96
2019-05-12T05:22:40.575Z,78.32
2019-05-12T05:25:30.361Z,77.81
2019-05-12T05:28:00.764Z,77.49
2019-05-12T05:30:33.728Z,76.69
2019-05-12T05:33:19.677Z,76.34
2019-05-12T05:35:59.313Z,75.81
2019-05-12T05:38:51.106Z,74.72
2019-05-12T05:41:31.814Z,73.77
2019-05-12T05:44:23.859Z,74.00
2019-05-12T05:46:59.109Z,73.36
2019-05-12T05:49:48.879Z,73.79
2019-05-12T05:52:38.970Z,73.75
2019-05-12T05:55:23.369Z,74.81
2019-05-12T05:58:10.008Z,75.95
2019-05-12T06:00:48.452Z,75.41
2019-05-12T06:03:38.261Z,74.92
2019-05-12T06:06:28.023Z,75.06
2019-05-12T06:08:59.641Z,74.60
2019-05-12T06:11:30.069Z,75.44
2019-05-12T06:14:19.854Z,75.24
2019-05-12T06:17:09.664Z,75.03
2019-05-12T06:19:59.434Z,74.40
2019-05-12T06:22:54.427Z,73.38
2019-05-12T06:25:44.539Z,74.46
2019-05-12T06:28:09.677Z,74.74
2019-05-12T06:30:59.458Z,73.72
2019-05-12T06:37:05.156Z,74.43
2019-05-12T06:39:43.451Z,74.48
2019-05-12T06:42:24.290Z,74.38
2019-05-12T06:45:14.300Z,74.55
2019-05-12T06:47:49.543Z,74.78
2019-05-12T06:50:23.749Z,74.44
2019-05-12T06:53:05.736Z,73.71
2019-05-12T06:55:55.557Z,74.06
2019-05-12T06:58:45.400Z,75.35
2019-05-12T07:01:35.194Z,75.47
2019-05-12T07:04:24.935Z,74.95
2019-05-12T07:07:14.720Z,74.94
2019-05-12T07:10:11.595Z,74.34
2019-05-12T07:13:00.712Z,72.35
2019-05-12T07:15:35.760Z,71.55
2019-05-12T07:20:58.819Z,71.66
2019-05-12T07:23:30.171Z,71.15
2019-05-12T07:26:17.872Z,71.65
2019-05-12T07:28:56.077Z,72.12
2019-05-12T07:31:45.899Z,71.61
2019-05-12T07:34:35.684Z,70.78
2019-05-12T07:40:53.641Z,66.58
2019-05-12T07:46:54.210Z,67.00
2019-05-12T07:49:45.107Z,66.38
2019-05-12T07:52:34.883Z,65.21
2019-05-12T07:55:24.637Z,64.42
2019-05-12T07:57:58.711Z,64.02
2019-05-12T08:00:38.597Z,64.02
2019-05-12T08:03:28.352Z,63.79
2019-05-12T08:06:01.790Z,65.21
2019-05-12T08:08:36.241Z,65.17
2019-05-12T08:11:06.711Z,67.15
2019-05-12T08:13:40.796Z,67.17
2019-05-12T08:16:32.194Z,65.66
2019-05-12T08:19:17.266Z,64.38
2019-05-12T08:21:55.268Z,64.11
2019-05-12T08:24:25.669Z,64.80
2019-05-12T08:26:59.601Z,64.42
2019-05-12T08:29:43.293Z,64.20
2019-05-12T08:32:27.228Z,62.67
2019-05-12T08:35:06.816Z,63.83
2019-05-12T08:37:37.388Z,65.89
2019-05-12T08:40:07.931Z,67.07
2019-05-12T08:42:59.387Z,68.18
2019-05-12T08:45:49.247Z,68.32
2019-05-12T08:48:39.071Z,66.49
2019-05-12T08:51:14.153Z,65.18
2019-05-12T08:53:53.983Z,65.17
2019-05-12T08:56:35.027Z,63.81
2019-05-12T08:59:09.737Z,64.81
2019-05-12T09:01:48.221Z,65.85
2019-05-12T09:04:18.641Z,65.44
2019-05-12T09:10:10.177Z,64.90
2019-05-12T09:13:00.011Z,63.74
2019-05-12T09:15:30.382Z,64.22
2019-05-12T09:18:20.131Z,64.03
2019-05-12T09:21:09.942Z,63.77
2019-05-12T09:23:59.701Z,63.48
2019-05-12T09:26:49.496Z,62.67
2019-05-12T09:29:39.273Z,62.71
2019-05-12T09:32:29.104Z,65.34
2019-05-12T09:34:59.491Z,66.46
2019-05-12T09:37:49.279Z,66.33
2019-05-12T09:40:21.061Z,66.73
2019-05-12T09:43:10.500Z,66.63
2019-05-12T09:45:52.399Z,67.39
2019-05-12T09:48:33.469Z,68.13
2019-05-12T09:51:17.147Z,67.97
2019-05-12T09:53:57.799Z,68.43
2019-05-12T09:56:50.098Z,68.66
2019-05-12T09:59:39.033Z,69.33
2019-05-12T10:02:10.463Z,70.29
2019-05-12T10:05:01.140Z,71.05
2019-05-12T10:07:44.500Z,71.67
2019-05-12T10:10:29.095Z,72.26
2019-05-12T10:13:13.851Z,72.23
2019-05-12T10:15:49.596Z,71.63
2019-05-12T10:18:20.019Z,72.47
2019-05-12T10:21:14.758Z,72.60
2019-05-12T10:24:00.193Z,73.54
2019-05-12T10:26:30.170Z,76.68
2019-05-12T10:29:20.960Z,77.68
2019-05-12T10:31:57.532Z,78.07
2019-05-12T10:34:29.426Z,78.25
2019-05-12T10:37:24.544Z,78.35
2019-05-12T10:40:03.574Z,78.64
2019-05-12T10:42:46.008Z,79.78
2019-05-12T10:48:27.085Z,80.31
2019-05-12T10:50:57.419Z,80.26
2019-05-12T10:53:48.767Z,81.54
2019-05-12T10:56:30.085Z,81.87
2019-05-12T10:59:30.163Z,81.88
2019-05-12T11:02:11.397Z,82.79
2019-05-12T11:05:01.165Z,83.58
2019-05-12T11:07:31.526Z,84.05
2019-05-12T11:10:23.269Z,84.49
2019-05-12T11:13:14.180Z,85.61
2019-05-12T11:15:56.366Z,84.46
2019-05-12T11:18:46.150Z,84.11
2019-05-12T11:21:16.624Z,83.60
2019-05-12T11:24:06.371Z,83.76
2019-05-12T11:26:56.145Z,83.73
2019-05-12T11:29:49.330Z,84.49
2019-05-12T11:32:34.913Z,83.99
2019-05-12T11:35:14.240Z,83.57
2019-05-12T11:37:56.405Z,82.73
2019-05-12T11:40:46.194Z,81.89
2019-05-12T11:43:35.998Z,81.78
2019-05-12T11:46:25.751Z,81.79
2019-05-12T11:49:15.535Z,81.61
2019-05-12T11:51:45.928Z,81.91
2019-05-12T11:54:35.716Z,81.97
2019-05-12T11:57:06.092Z,82.11
2019-05-12T11:59:36.527Z,82.25
2019-05-12T12:02:08.556Z,82.53
2019-05-12T12:04:58.343Z,83.90
2019-05-12T12:07:28.757Z,83.81
2019-05-12T12:10:00.878Z,84.10
2019-05-12T12:12:31.240Z,84.13
2019-05-12T12:15:01.661Z,85.23
2019-05-12T12:17:53.463Z,85.12
2019-05-12T12:20:34.348Z,85.53
2019-05-12T12:23:10.837Z,87.43
2019-05-12T12:25:48.711Z,87.57
2019-05-12T12:28:31.464Z,87.74
2019-05-12T12:31:23.677Z,88.17
2019-05-12T12:34:15.518Z,89.06
2019-05-12T12:36:55.345Z,89.69
2019-05-12T12:39:45.146Z,89.40
2019-05-12T12:42:15.531Z,88.93
2019-05-12T12:48:01.122Z,89.68
2019-05-12T12:50:53.315Z,90.90
2019-05-12T12:53:34.509Z,91.64
2019-05-12T12:56:25.100Z,90.81
2019-05-12T12:59:01.856Z,90.32
2019-05-12T13:01:44.368Z,89.75
2019-05-12T13:04:28.861Z,90.23
2019-05-12T13:07:10.134Z,91.27
2019-05-12T13:10:07.209Z,90.99
2019-05-12T13:12:58.732Z,90.41
2019-05-12T13:15:28.965Z,90.27
2019-05-12T13:18:27.406Z,90.51
2019-05-12T13:21:03.647Z,91.10
2019-05-12T13:23:53.916Z,91.34
2019-05-12T13:26:36.842Z,91.29
2019-05-12T13:29:07.274Z,91.22
2019-05-12T13:31:41.100Z,89.74
2019-05-12T13:34:23.725Z,90.49
2019-05-12T13:36:59.460Z,90.52
2019-05-12T13:39:58.663Z,90.81
2019-05-12T13:42:35.878Z,90.56
2019-05-12T13:45:17.018Z,90.78
2019-05-12T13:47:47.416Z,91.26
2019-05-12T13:50:37.168Z,91.60
2019-05-12T13:53:26.988Z,91.96
2019-05-12T13:56:19.287Z,91.51
2019-05-12T13:58:59.709Z,91.35
2019-05-12T14:01:49.582Z,91.29
2019-05-12T14:04:27.153Z,91.77
2019-05-12T14:07:03.959Z,92.11
2019-05-12T14:09:46.709Z,92.52
2019-05-12T14:12:36.537Z,92.59
2019-05-12T14:15:26.282Z,92.49
2019-05-12T14:17:56.767Z,92.93
2019-05-12T14:20:27.166Z,93.10
2019-05-12T14:22:57.557Z,92.84
2019-05-12T14:25:47.414Z,93.05
2019-05-12T14:28:39.498Z,92.82
2019-05-12T14:31:35.113Z,93.02
2019-05-12T14:34:18.877Z,92.41
2019-05-12T14:36:58.432Z,92.66
2019-05-12T14:39:40.149Z,92.44
2019-05-12T14:42:19.525Z,92.17
2019-05-12T14:45:30.043Z,92.63
2019-05-12T14:48:19.860Z,92.76
2019-05-12T14:51:09.739Z,92.10
2019-05-12T14:53:59.565Z,91.91
2019-05-12T14:56:30.169Z,91.92
2019-05-12T14:59:00.959Z,92.21
2019-05-12T15:01:53.598Z,91.36
2019-05-12T15:04:29.833Z,91.53
2019-05-12T15:07:10.206Z,90.99
2019-05-12T15:09:46.497Z,90.19
2019-05-12T15:12:36.287Z,90.71
2019-05-12T15:15:08.980Z,90.35
2019-05-12T15:17:39.484Z,90.81
2019-05-12T15:20:29.258Z,90.91
2019-05-12T15:22:59.647Z,89.98
2019-05-12T15:25:35.317Z,89.90
2019-05-12T15:28:14.638Z,89.49
2019-05-12T15:30:56.954Z,89.03
2019-05-12T15:33:46.734Z,88.67
2019-05-12T15:36:17.071Z,88.51
2019-05-12T15:38:49.236Z,88.71
2019-05-12T15:41:38.958Z,89.42
2019-05-12T15:44:09.431Z,89.38
2019-05-12T15:46:59.182Z,89.57
2019-05-12T15:49:48.984Z,89.42
2019-05-12T15:52:42.368Z,89.38
2019-05-12T15:55:25.615Z,89.18
2019-05-12T15:57:59.617Z,89.04
2019-05-12T16:00:49.410Z,88.82
2019-05-12T16:03:20.100Z,89.00
2019-05-12T16:06:11.962Z,88.99
2019-05-12T16:09:03.881Z,89.14
2019-05-12T16:11:44.445Z,89.11
2019-05-12T16:14:36.761Z,89.08
2019-05-12T16:17:24.653Z,89.34
2019-05-12T16:20:03.493Z,89.64
2019-05-12T16:25:47.755Z,89.76
2019-05-12T16:28:26.562Z,89.58
2019-05-12T16:31:07.090Z,89.69
2019-05-12T16:33:44.503Z,89.73
2019-05-12T16:36:34.303Z,89.55
2019-05-12T16:39:24.083Z,90.04
2019-05-12T16:42:14.163Z,90.18
2019-05-12T16:48:11.409Z,90.19
2019-05-12T16:50:59.264Z,90.81
2019-05-12T16:53:49.067Z,90.78
2019-05-12T16:56:38.826Z,91.14
2019-05-12T16:59:28.621Z,91.33
2019-05-12T17:02:39.480Z,91.66
2019-05-12T17:05:24.079Z,91.92
2019-05-12T17:08:14.065Z,92.59
2019-05-12T17:13:47.413Z,92.97
2019-05-12T17:16:25.318Z,92.82
2019-05-12T17:19:15.526Z,93.21
2019-05-12T17:21:59.433Z,93.40
2019-05-12T17:24:44.682Z,92.99
2019-05-12T17:27:27.386Z,93.07
2019-05-12T17:30:04.431Z,93.28
2019-05-12T17:32:57.959Z,93.50
2019-05-12T17:35:31.695Z,93.89
2019-05-12T17:38:19.884Z,94.42
2019-05-12T17:41:00.732Z,94.72
2019-05-12T17:43:54.852Z,95.05
2019-05-12T17:46:23.389Z,94.78
2019-05-12T17:49:06.042Z,94.52
2019-05-12T17:51:57.309Z,94.58
2019-05-12T17:54:34.171Z,94.47
2019-05-12T17:57:19.967Z,94.58
2019-05-12T17:59:59.898Z,95.28
2019-05-12T18:02:43.988Z,95.19
2019-05-12T18:05:25.260Z,95.60
2019-05-12T18:08:15.092Z,95.45
2019-05-12T18:11:04.926Z,95.29
2019-05-12T18:14:01.107Z,95.30
2019-05-12T18:16:33.934Z,95.18
2019-05-12T18:19:19.488Z,95.47
2019-05-12T18:22:03.423Z,95.26
2019-05-12T18:24:49.408Z,94.66
2019-05-12T18:27:28.376Z,94.76
2019-05-12T18:29:58.775Z,94.88
2019-05-12T18:32:57.672Z,95.15
2019-05-12T18:35:26.067Z,95.50
2019-05-12T18:38:22.791Z,95.17
2019-05-12T18:41:07.341Z,94.62
2019-05-12T18:43:57.139Z,94.78
2019-05-12T18:46:46.912Z,94.79
2019-05-12T18:49:36.705Z,94.21
2019-05-12T18:52:07.086Z,94.09
2019-05-12T18:54:43.023Z,94.13
2019-05-12T18:57:28.977Z,93.99
2019-05-12T19:03:08.008Z,93.76
2019-05-12T19:05:47.483Z,94.07
2019-05-12T19:08:20.316Z,94.01
2019-05-12T19:11:19.913Z,94.11
2019-05-12T19:13:57.018Z,93.51
2019-05-12T19:16:36.172Z,93.28
2019-05-12T19:19:09.755Z,92.56
2019-05-12T19:22:06.804Z,92.22
2019-05-12T19:24:44.359Z,92.24
2019-05-12T19:27:25.397Z,92.31
2019-05-12T19:29:55.876Z,92.72
2019-05-12T19:32:27.941Z,92.81
2019-05-12T19:35:03.986Z,92.64
2019-05-12T19:37:34.486Z,92.40
2019-05-12T19:40:24.267Z,92.07
2019-05-12T19:43:01.986Z,92.16
2019-05-12T19:45:46.150Z,92.17
2019-05-12T19:48:26.589Z,92.20
2019-05-12T19:51:20.864Z,91.80
2019-05-12T19:53:51.419Z,92.05
2019-05-12T19:56:23.859Z,92.14
2019-05-12T19:59:14.658Z,91.86
2019-05-12T20:01:56.275Z,91.65
2019-05-12T20:04:33.310Z,91.25
2019-05-12T20:07:09.873Z,90.88
2019-05-12T20:09:48.459Z,90.72
2019-05-12T20:12:34.145Z,90.57
2019-05-12T20:15:15.372Z,90.61
2019-05-12T20:17:53.583Z,90.59
2019-05-12T20:20:41.723Z,91.06
2019-05-12T20:23:20.414Z,90.54
2019-05-12T20:25:50.779Z,90.80
2019-05-12T20:28:21.203Z,90.05
2019-05-12T20:31:11.035Z,90.15
2019-05-12T20:34:06.212Z,90.28
2019-05-12T20:36:44.488Z,90.17
2019-05-12T20:39:29.218Z,89.77
2019-05-12T20:42:00.976Z,90.23
2019-05-12T20:44:57.683Z,89.96
2019-05-12T20:47:39.062Z,90.17
2019-05-12T20:50:17.691Z,89.91
2019-05-12T20:52:57.678Z,90.50
2019-05-12T20:55:41.594Z,89.41
2019-05-12T21:01:13.991Z,89.45
2019-05-12T21:03:58.127Z,88.58
2019-05-12T21:06:33.088Z,88.53
2019-05-12T21:09:20.301Z,88.51
2019-05-12T21:11:54.661Z,88.83
2019-05-12T21:14:34.701Z,88.73
2019-05-12T21:17:09.473Z,88.58
2019-05-12T21:19:59.370Z,88.59
2019-05-12T21:22:39.600Z,87.67
2019-05-12T21:25:11.135Z,86.65
2019-05-12T21:28:02.883Z,86.70
2019-05-12T21:30:48.021Z,86.85
2019-05-12T21:33:31.403Z,86.71
2019-05-12T21:36:05.546Z,86.95
2019-05-12T21:38:59.518Z,86.75
2019-05-12T21:41:34.475Z,86.71
2019-05-12T21:44:15.560Z,85.39
2019-05-12T21:46:57.422Z,85.14
2019-05-12T21:49:37.430Z,85.35
2019-05-12T21:52:07.876Z,85.36
2019-05-12T21:54:39.747Z,85.08
2019-05-12T21:57:27.491Z,84.62
2019-05-12T22:03:27.847Z,84.75
2019-05-12T22:05:58.241Z,84.75
2019-05-12T22:11:12.756Z,84.87
2019-05-12T22:13:46.837Z,84.47
2019-05-12T22:19:20.047Z,84.51
2019-05-12T22:22:09.825Z,83.90
2019-05-12T22:24:40.290Z,83.03
2019-05-12T22:27:16.197Z,83.05
2019-05-12T22:29:53.897Z,82.93
2019-05-12T22:32:28.162Z,82.28
2019-05-12T22:35:21.946Z,82.11
2019-05-12T22:37:58.484Z,81.64
2019-05-12T22:43:40.724Z,81.76
2019-05-12T22:46:16.512Z,82.22
2019-05-12T22:48:58.356Z,82.18
2019-05-12T22:51:28.829Z,82.31
2019-05-12T22:54:00.392Z,81.50
2019-05-12T22:56:44.157Z,81.87
2019-05-12T22:59:34.350Z,81.71
2019-05-12T23:02:09.979Z,81.93
2019-05-12T23:04:40.609Z,81.49
2019-05-12T23:07:11.103Z,81.19
2019-05-12T23:10:06.962Z,81.05
2019-05-12T23:12:44.764Z,81.43
2019-05-12T23:15:27.796Z,81.24
2019-05-12T23:17:58.212Z,81.49
2019-05-12T23:20:30.934Z,81.36
2019-05-12T23:23:20.094Z,80.95
2019-05-12T23:25:52.014Z,81.43
2019-05-12T23:28:33.846Z,81.67
2019-05-12T23:31:19.577Z,81.47
2019-05-12T23:33:59.464Z,81.57
2019-05-12T23:36:36.621Z,81.76
2019-05-12T23:39:23.450Z,81.77
2019-05-12T23:42:04.523Z,81.73
2019-05-12T23:44:34.897Z,81.40
2019-05-12T23:47:05.323Z,81.29
2019-05-12T23:49:55.123Z,81.20
2019-05-12T23:52:25.495Z,81.44
2019-05-12T23:54:55.877Z,81.51
2019-05-12T23:57:26.342Z,81.37
2019-05-12T23:59:56.706Z,81.40
